createdAt,value
2024-05-09T00:02:56.848Z,10.92
2024-05-09T00:09:16.777Z,10.83
2024-05-09T00:15:38.925Z,10.8
2024-05-09T00:21:58.819Z,10.65
2024-05-09T00:28:20.919Z,10.57
2024-05-09T00:34:40.864Z,10.54
2024-05-09T00:41:02.938Z,10.51
2024-05-09T00:47:23.014Z,10.32
2024-05-09T00:53:44.950Z,10.32
2024-05-09T01:00:07.738Z,10.27
2024-05-09T01:06:26.886Z,10.21
2024-05-09T01:12:46.809Z,10.12
2024-05-09T01:19:08.968Z,10.05
2024-05-09T01:25:28.835Z,9.98
2024-05-09T01:31:50.981Z,9.9
2024-05-09T01:38:10.888Z,9.69
2024-05-09T01:44:32.933Z,9.69
2024-05-09T01:50:52.843Z,9.65
2024-05-09T01:57:14.810Z,9.55
2024-05-09T02:03:34.927Z,9.59
2024-05-09T02:09:56.810Z,9.55
2024-05-09T02:16:16.812Z,9.58
2024-05-09T02:22:38.829Z,9.54
2024-05-09T02:28:58.887Z,9.47
2024-05-09T02:35:20.907Z,9.42
2024-05-09T02:41:40.831Z,9.34
2024-05-09T02:48:03.145Z,9.28
2024-05-09T02:54:22.811Z,9.14
2024-05-09T03:00:44.853Z,9.09
2024-05-09T03:07:04.891Z,9.03
2024-05-09T03:13:27.010Z,8.99
2024-05-09T03:29:57.833Z,8.84
2024-05-09T03:36:19.799Z,8.65
2024-05-09T03:42:39.831Z,8.63
2024-05-09T03:49:01.914Z,8.64
2024-05-09T03:55:21.868Z,8.59
2024-05-09T04:01:43.911Z,8.59
2024-05-09T04:08:03.894Z,8.75
2024-05-09T04:14:25.875Z,8.73
2024-05-09T04:20:45.864Z,8.8
2024-05-09T04:27:07.876Z,8.98
2024-05-09T04:33:27.969Z,9.04
2024-05-09T04:39:49.818Z,9.15
2024-05-09T04:46:09.856Z,9.29
2024-05-09T04:52:31.792Z,9.43
2024-05-09T04:58:51.942Z,9.52
2024-05-09T05:05:13.874Z,9.7
2024-05-09T05:11:33.961Z,9.85
2024-05-09T05:17:55.983Z,10.02
2024-05-09T05:24:15.844Z,10.26
2024-05-09T05:30:37.962Z,10.42
2024-05-09T05:36:57.825Z,10.51
2024-05-09T05:43:19.828Z,10.64
2024-05-09T05:49:41.087Z,10.88
2024-05-09T05:56:02.831Z,11.06
2024-05-09T06:02:23.033Z,11.24
2024-05-09T06:08:44.942Z,11.43
2024-05-09T06:15:04.788Z,11.49
2024-05-09T06:21:26.891Z,11.48
2024-05-09T06:27:46.808Z,11.61
2024-05-09T06:34:08.940Z,11.74
2024-05-09T06:40:34.071Z,11.84
2024-05-09T06:46:50.932Z,11.97
2024-05-09T06:53:10.815Z,11.94
2024-05-09T06:59:32.938Z,12.1
2024-05-09T07:05:52.936Z,11.92
2024-05-09T07:12:14.897Z,12.11
2024-05-09T07:18:35.231Z,12.25
2024-05-09T07:24:56.860Z,12.51
2024-05-09T07:31:16.798Z,12.73
2024-05-09T07:37:38.876Z,12.67
2024-05-09T07:43:58.825Z,12.75
2024-05-09T07:56:41.038Z,13.26
2024-05-09T08:03:02.816Z,13.52
2024-05-09T08:09:22.827Z,13.83
2024-05-09T08:15:44.997Z,13.98
2024-05-09T08:22:04.903Z,14.08
2024-05-09T08:39:16.518Z,14.2
2024-05-09T08:45:35.945Z,14.75
2024-05-09T08:51:58.090Z,15.32
2024-05-09T08:58:18.176Z,15.61
2024-05-09T09:04:39.936Z,16.09
2024-05-09T09:10:59.837Z,16.36
2024-05-09T09:17:21.883Z,16.85
2024-05-09T09:23:41.808Z,17.18
2024-05-09T09:30:04.551Z,17.45
2024-05-09T09:36:23.861Z,17.59
2024-05-09T09:42:45.823Z,17.85
2024-05-09T09:49:05.914Z,18.47
2024-05-09T09:55:27.933Z,19.34
2024-05-09T10:01:47.920Z,19.99
2024-05-09T10:08:09.826Z,20.58
2024-05-09T10:14:29.875Z,20.66
2024-05-09T10:20:51.840Z,20.79
2024-05-09T10:27:11.949Z,21.19
2024-05-09T10:33:33.896Z,21.44
2024-05-09T10:39:53.848Z,21.09
2024-05-09T10:46:15.956Z,21.51
2024-05-09T10:52:35.815Z,22.48
2024-05-09T10:58:57.810Z,22.39
2024-05-09T11:05:17.903Z,22.95
2024-05-09T11:11:39.853Z,23.25
2024-05-09T11:17:59.897Z,22.07
2024-05-09T11:24:21.808Z,22.06
2024-05-09T11:30:41.887Z,21.96
2024-05-09T11:37:03.815Z,21.75
2024-05-09T11:43:23.907Z,22.73
2024-05-09T11:49:45.858Z,23.13
2024-05-09T11:56:05.828Z,22.69
2024-05-09T12:02:27.902Z,23.71
2024-05-09T12:08:47.805Z,24.7
2024-05-09T12:15:09.833Z,25.9
2024-05-09T12:21:29.855Z,26.23
2024-05-09T12:27:51.901Z,26.08
2024-05-09T12:34:11.831Z,25.7
2024-05-09T12:40:35.384Z,25.6
2024-05-09T12:46:53.834Z,25.08
2024-05-09T12:53:15.804Z,26.68
2024-05-09T12:59:35.807Z,25.66
2024-05-09T13:05:57.812Z,24.82
2024-05-09T13:12:17.789Z,24.16
2024-05-09T13:18:39.930Z,24.06
2024-05-09T13:24:59.860Z,23.96
2024-05-09T13:48:39.758Z,24.21
2024-05-09T13:55:00.840Z,24.22
2024-05-09T14:01:19.879Z,23.17
2024-05-09T14:07:41.819Z,23.2
2024-05-09T14:14:01.802Z,23.08
2024-05-09T14:20:29.681Z,23.13
2024-05-09T14:26:43.799Z,23.13
2024-05-09T14:33:05.548Z,24.58
2024-05-09T14:39:24.805Z,26.35
2024-05-09T14:45:46.881Z,27.39
2024-05-09T14:52:06.875Z,27.47
2024-05-09T14:58:28.825Z,28.53
2024-05-09T15:04:48.989Z,27.54
2024-05-09T15:11:10.843Z,27.82
2024-05-09T15:17:30.842Z,28.01
2024-05-09T15:23:52.833Z,28.08
2024-05-09T15:30:13.156Z,28.39
2024-05-09T15:36:34.890Z,29.19
2024-05-09T15:42:54.819Z,28.04
2024-05-09T15:49:17.011Z,28.14
2024-05-09T15:55:36.819Z,28.34
2024-05-09T16:01:58.839Z,25.92
2024-05-09T16:08:18.810Z,25.26
2024-05-09T16:14:40.796Z,24.25
2024-05-09T16:21:00.802Z,23.82
2024-05-09T16:27:22.807Z,23.69
2024-05-09T16:33:42.866Z,23.73
2024-05-09T16:40:04.360Z,23.65
2024-05-09T16:46:23.934Z,23.92
2024-05-09T16:52:45.791Z,24.71
2024-05-09T16:59:05.843Z,24.44
2024-05-09T17:05:27.888Z,23.82
2024-05-09T17:11:47.811Z,23.66
2024-05-09T17:18:09.854Z,23.55
2024-05-09T17:24:29.794Z,23.28
2024-05-09T17:30:51.849Z,22.88
2024-05-09T17:37:11.846Z,22.5
2024-05-09T17:43:33.960Z,22.38
2024-05-09T17:49:53.824Z,22.21
2024-05-09T17:56:15.803Z,21.93
2024-05-09T18:02:35.829Z,21.63
2024-05-09T18:08:57.792Z,21.25
2024-05-09T18:15:17.828Z,21.2
2024-05-09T18:21:39.809Z,21.08
2024-05-09T18:27:59.937Z,20.82
2024-05-09T18:34:21.945Z,20.72
2024-05-09T18:40:43.047Z,20.53
2024-05-09T18:47:04.093Z,20.34
2024-05-09T18:53:24.061Z,20
2024-05-09T18:59:45.930Z,19.87
2024-05-09T19:06:06.031Z,19.65
2024-05-09T19:12:27.835Z,19.49
2024-05-09T19:28:33.736Z,19.07
2024-05-09T19:34:52.766Z,18.82
2024-05-09T19:41:13.806Z,18.46
2024-05-09T19:47:34.065Z,18.35
2024-05-09T19:53:55.840Z,18.08
2024-05-09T20:00:21.443Z,17.63
2024-05-09T20:06:37.826Z,17.29
2024-05-09T20:12:57.802Z,17.05
2024-05-09T20:19:18.956Z,16.97
2024-05-09T20:25:38.961Z,16.72
2024-05-09T20:32:00.806Z,16.45
2024-05-09T20:38:20.885Z,16.23
2024-05-09T20:44:42.814Z,16.01
2024-05-09T20:51:02.816Z,15.78
2024-05-09T20:57:24.798Z,15.51
2024-05-09T21:03:44.943Z,15.31
2024-05-09T21:10:12.615Z,15.1
2024-05-09T21:16:26.835Z,14.89
2024-05-09T21:22:48.861Z,14.85
2024-05-09T21:29:08.876Z,14.73
2024-05-09T21:35:30.870Z,14.71
2024-05-09T21:41:50.817Z,14.57
2024-05-09T21:48:13.083Z,14.1
2024-05-09T21:54:32.880Z,13.87
2024-05-09T22:20:11.615Z,13.65
2024-05-09T22:26:25.792Z,13.59
2024-05-09T22:32:47.934Z,13.51
2024-05-09T22:39:07.880Z,13.34
2024-05-09T22:45:29.800Z,13.31
2024-05-09T22:51:49.851Z,13.18
2024-05-09T22:58:11.979Z,13.05
2024-05-09T23:04:31.895Z,12.94
2024-05-09T23:10:53.944Z,12.92
2024-05-09T23:17:13.894Z,12.88
2024-05-09T23:23:35.896Z,12.67
2024-05-09T23:29:55.808Z,12.58
2024-05-09T23:36:17.860Z,12.58
2024-05-09T23:42:37.820Z,12.35
2024-05-09T23:48:59.980Z,12.36
2024-05-09T23:55:19.872Z,12.18
